protectmyid.com alexa rank chart, protectmyid.com alexa rank daily changes

protectmyid.com alexa rank chart, protectmyid.com alexa rank daily changes

protectmyid.com
Actual rank:
91 200

RANK HISTORY

Date Rank Diff
2018/02/17 91 200 -32 515
2018/02/16 123 715 +18 894
2018/02/15 104 821 -82 325
2018/02/14 187 146 -5 198
2018/02/13 192 344 -60 387
2018/02/12 252 731 +111 138
2018/02/11 141 593 +41 008
2018/02/10 100 585 -27 821
2018/02/09 128 406 -77 615
2018/02/08 206 021 +118 777
2018/02/07 87 244 +3 403
2018/02/06 83 841 +47 454
2018/02/05 36 387 -23 455
2018/02/04 59 842 -67 858
2018/02/03 127 700 -107 452
2018/02/02 235 152 +30 684
2018/02/01 204 468 -102 092
2018/01/31 306 560 +210 609
2018/01/30 95 951 +1 852
2018/01/29 94 099 +3 035
2018/01/28 91 064 -154
2018/01/27 91 218 +1 454
2018/01/26 89 764 +324
2018/01/25 89 440 -429
2018/01/24 89 869 +503
2018/01/23 89 366 +369
2018/01/22 88 997 +250
2018/01/21 88 747 -1 934
2018/01/20 90 681 -2 382
2018/01/19 93 063 +344
2018/01/18 92 719 +1 308
2018/01/17 91 411 -453
2018/01/16 91 864 +1 053
2018/01/15 90 811 +1 737
2018/01/14 89 074 +839
2018/01/13 88 235 -373
2018/01/12 88 608 -1 275
2018/01/11 89 883 -535
2018/01/10 90 418 +108
2018/01/09 90 310 -2 757
2018/01/08 93 067 -611
2018/01/07 93 678 +938
2018/01/06 92 740 +1 186
2018/01/05 91 554 +17
2018/01/04 91 537 +1 123
2018/01/03 90 414 -1 544
2018/01/02 91 958 +395
2018/01/01 91 563 -496
2017/12/31 92 059 -2 508
2017/12/30 94 567 -2 965
2017/12/29 97 532 -3 259
2017/12/28 100 791 -1 109
2017/12/27 101 900 +456
2017/12/26 101 444 -554
2017/12/25 101 998 -373
2017/12/24 102 371 -793
2017/12/23 103 164 -910
2017/12/22 104 074 +21
2017/12/21 104 053 +66
2017/12/20 103 987 +2 704
2017/12/19 101 283

WIDGET FOR YOUR SITE

DOMAINS WITH THE NEAREST RANK

Domain Rank
audibank.de 91 195
furfur.me 91 196
imageweb.ws 91 197
sena.com 91 198
hcl.hr 91 199
protectmyid.com 91 200
notino.fr 91 201
fortebet.ug 91 202
lared.cl 91 203
football-direct.com 91 204
herculist.com 91 205

DOMAINS WITH THE NEAREST RANK BY TLD .com

Domain Rank
arabsciences.com 91 187
clashroyalepedia.com 91 189
pornxmov.com 91 190
furvilla.com 91 193
sena.com 91 198
protectmyid.com 91 200
football-direct.com 91 204
herculist.com 91 205
reolink.com 91 207
freshkino.com 91 210
testforspeed.com 91 211